sensor_id;sensor_type;location;lat;lon;timestamp;pressure;altitude;pressure_sealevel;temperature;humidity
21980;BME280;11154;48.558;9.234;2022-11-20T00:00:46;97018.75;;;10.44;84.69
21980;BME280;11154;48.558;9.234;2022-11-20T00:02:49;97022.09;;;10.38;84.11
21980;BME280;11154;48.558;9.234;2022-11-20T00:04:51;97032.75;;;10.38;84.58
21980;BME280;11154;48.558;9.234;2022-11-20T00:06:52;97024.91;;;10.37;84.35
21980;BME280;11154;48.558;9.234;2022-11-20T00:08:55;97026.75;;;10.36;84.68
21980;BME280;11154;48.558;9.234;2022-11-20T00:10:57;97023.44;;;10.34;84.92
21980;BME280;11154;48.558;9.234;2022-11-20T00:13:04;97031.59;;;10.33;84.32
21980;BME280;11154;48.558;9.234;2022-11-20T00:15:07;97030.78;;;10.32;84.09
21980;BME280;11154;48.558;9.234;2022-11-20T00:17:09;97032.75;;;10.30;84.38
21980;BME280;11154;48.558;9.234;2022-11-20T00:19:12;97024.13;;;10.28;84.29
21980;BME280;11154;48.558;9.234;2022-11-20T00:21:15;97032.28;;;10.27;84.30
21980;BME280;11154;48.558;9.234;2022-11-20T00:23:17;97029.78;;;10.25;84.14
21980;BME280;11154;48.558;9.234;2022-11-20T00:25:18;97034.25;;;10.25;84.11
21980;BME280;11154;48.558;9.234;2022-11-20T00:27:20;97034.94;;;10.27;84.51
21980;BME280;11154;48.558;9.234;2022-11-20T00:29:22;97026.16;;;10.26;84.53
21980;BME280;11154;48.558;9.234;2022-11-20T00:31:24;97036.09;;;10.24;84.11
21980;BME280;11154;48.558;9.234;2022-11-20T00:33:25;97029.94;;;10.24;84.16
21980;BME280;11154;48.558;9.234;2022-11-20T00:35:28;97028.31;;;10.23;84.33
21980;BME280;11154;48.558;9.234;2022-11-20T00:37:30;97037.28;;;10.22;83.70
21980;BME280;11154;48.558;9.234;2022-11-20T00:39:32;97030.47;;;10.19;83.78
21980;BME280;11154;48.558;9.234;2022-11-20T00:41:33;97035.13;;;10.17;83.89
21980;BME280;11154;48.558;9.234;2022-11-20T00:43:35;97035.31;;;10.16;84.50
21980;BME280;11154;48.558;9.234;2022-11-20T00:45:37;97033.81;;;10.13;84.50
21980;BME280;11154;48.558;9.234;2022-11-20T00:47:40;97041.13;;;10.11;84.29
21980;BME280;11154;48.558;9.234;2022-11-20T00:49:42;97035.81;;;10.11;84.71
21980;BME280;11154;48.558;9.234;2022-11-20T00:51:45;97049.09;;;10.11;84.62
21980;BME280;11154;48.558;9.234;2022-11-20T00:53:47;97048.44;;;10.09;84.79
21980;BME280;11154;48.558;9.234;2022-11-20T00:55:53;97052.91;;;10.09;84.83
21980;BME280;11154;48.558;9.234;2022-11-20T00:57:55;97055.56;;;10.09;84.92
21980;BME280;11154;48.558;9.234;2022-11-20T00:59:57;97051.25;;;10.08;84.95
21980;BME280;11154;48.558;9.234;2022-11-20T01:01:59;97056.56;;;10.08;84.53
21980;BME280;11154;48.558;9.234;2022-11-20T01:04:00;97056.56;;;10.08;85.00
21980;BME280;11154;48.558;9.234;2022-11-20T01:06:03;97052.44;;;10.06;84.46
21980;BME280;11154;48.558;9.234;2022-11-20T01:08:06;97065.03;;;10.04;84.63
21980;BME280;11154;48.558;9.234;2022-11-20T01:10:08;97060.91;;;10.01;83.99
21980;BME280;11154;48.558;9.234;2022-11-20T01:12:10;97062.88;;;9.99;84.72
21980;BME280;11154;48.558;9.234;2022-11-20T01:14:14;97060.22;;;9.99;84.67
21980;BME280;11154;48.558;9.234;2022-11-20T01:16:19;97059.41;;;9.99;84.86
21980;BME280;11154;48.558;9.234;2022-11-20T01:18:21;97059.59;;;9.97;84.39
21980;BME280;11154;48.558;9.234;2022-11-20T01:20:22;97064.91;;;9.97;84.86
21980;BME280;11154;48.558;9.234;2022-11-20T01:22:24;97067.66;;;9.96;84.72
21980;BME280;11154;48.558;9.234;2022-11-20T01:24:27;97065.19;;;9.94;84.82
21980;BME280;11154;48.558;9.234;2022-11-20T01:26:30;97071.50;;;9.93;84.27
21980;BME280;11154;48.558;9.234;2022-11-20T01:28:33;97071.50;;;9.93;84.64
21980;BME280;11154;48.558;9.234;2022-11-20T01:30:35;97071.66;;;9.92;84.69
21980;BME280;11154;48.558;9.234;2022-11-20T01:32:37;97069.03;;;9.92;84.70
21980;BME280;11154;48.558;9.234;2022-11-20T01:34:39;97069.19;;;9.90;84.71
21980;BME280;11154;48.558;9.234;2022-11-20T01:36:41;97070.19;;;9.89;84.96
21980;BME280;11154;48.558;9.234;2022-11-20T01:38:43;97073.16;;;9.86;84.86
21980;BME280;11154;48.558;9.234;2022-11-20T01:40:53;97071.19;;;9.88;84.35
21980;BME280;11154;48.558;9.234;2022-11-20T01:43:09;97072.00;;;9.89;84.58
21980;BME280;11154;48.558;9.234;2022-11-20T01:45:51;97072.84;;;9.89;84.27
21980;BME280;11154;48.558;9.234;2022-11-20T01:47:55;97072.16;;;9.87;84.40
21980;BME280;11154;48.558;9.234;2022-11-20T01:50:01;97074.00;;;9.87;84.40
21980;BME280;11154;48.558;9.234;2022-11-20T01:52:07;97065.19;;;9.86;84.37
21980;BME280;11154;48.558;9.234;2022-11-20T01:54:14;97066.22;;;9.85;83.98
21980;BME280;11154;48.558;9.234;2022-11-20T01:56:19;97058.25;;;9.85;84.15
21980;BME280;11154;48.558;9.234;2022-11-20T01:58:24;97057.59;;;9.83;83.81
21980;BME280;11154;48.558;9.234;2022-11-20T02:00:28;97020.47;;;9.43;84.62
21980;BME280;11154;48.558;9.234;2022-11-20T02:02:31;97021.31;;;8.47;92.17
21980;BME280;11154;48.558;9.234;2022-11-20T02:04:33;97028.13;;;8.16;95.69
21980;BME280;11154;48.558;9.234;2022-11-20T02:06:38;97036.75;;;7.93;97.81
21980;BME280;11154;48.558;9.234;2022-11-20T02:08:41;97036.56;;;7.87;99.45
21980;BME280;11154;48.558;9.234;2022-11-20T02:10:43;97034.69;;;7.79;99.75
21980;BME280;11154;48.558;9.234;2022-11-20T02:12:47;97038.44;;;7.69;100.00
21980;BME280;11154;48.558;9.234;2022-11-20T02:15:07;97041.31;;;7.58;100.00
21980;BME280;11154;48.558;9.234;2022-11-20T02:17:09;97038.47;;;7.51;100.00
21980;BME280;11154;48.558;9.234;2022-11-20T02:19:22;97040.44;;;7.49;100.00
21980;BME280;11154;48.558;9.234;2022-11-20T02:21:30;97039.22;;;7.44;100.00
21980;BME280;11154;48.558;9.234;2022-11-20T02:23:38;97035.31;;;7.48;100.00
21980;BME280;11154;48.558;9.234;2022-11-20T02:25:43;97038.13;;;7.46;100.00
21980;BME280;11154;48.558;9.234;2022-11-20T02:27:44;97033.75;;;7.37;100.00
21980;BME280;11154;48.558;9.234;2022-11-20T02:29:49;97038.78;;;7.48;100.00
21980;BME280;11154;48.558;9.234;2022-11-20T02:31:54;97031.19;;;7.53;100.00
21980;BME280;11154;48.558;9.234;2022-11-20T02:33:57;97031.97;;;7.46;100.00
21980;BME280;11154;48.558;9.234;2022-11-20T02:35:58;97034.09;;;7.42;100.00
21980;BME280;11154;48.558;9.234;2022-11-20T02:38:01;97032.97;;;7.45;100.00
21980;BME280;11154;48.558;9.234;2022-11-20T02:40:04;97021.72;;;7.43;100.00
21980;BME280;11154;48.558;9.234;2022-11-20T02:42:07;97025.44;;;7.32;100.00
21980;BME280;11154;48.558;9.234;2022-11-20T02:44:09;97024.31;;;7.35;100.00
21980;BME280;11154;48.558;9.234;2022-11-20T02:46:11;97021.50;;;7.36;100.00
21980;BME280;11154;48.558;9.234;2022-11-20T02:48:12;97025.75;;;7.29;100.00
21980;BME280;11154;48.558;9.234;2022-11-20T02:50:16;97021.94;;;7.32;100.00
21980;BME280;11154;48.558;9.234;2022-11-20T02:52:17;97017.66;;;7.31;100.00
21980;BME280;11154;48.558;9.234;2022-11-20T02:54:19;97017.28;;;7.26;100.00
21980;BME280;11154;48.558;9.234;2022-11-20T02:56:20;97012.75;;;7.18;100.00
21980;BME280;11154;48.558;9.234;2022-11-20T02:58:24;97015.34;;;7.11;100.00
21980;BME280;11154;48.558;9.234;2022-11-20T03:00:25;97023.44;;;7.09;100.00
21980;BME280;11154;48.558;9.234;2022-11-20T03:02:29;97014.81;;;7.07;100.00
21980;BME280;11154;48.558;9.234;2022-11-20T03:04:31;97025.34;;;6.99;100.00
21980;BME280;11154;48.558;9.234;2022-11-20T03:06:32;97016.56;;;6.99;100.00
21980;BME280;11154;48.558;9.234;2022-11-20T03:08:34;97013.75;;;7.00;100.00
21980;BME280;11154;48.558;9.234;2022-11-20T03:10:36;97009.47;;;6.99;100.00
21980;BME280;11154;48.558;9.234;2022-11-20T03:12:38;97013.09;;;6.98;100.00
21980;BME280;11154;48.558;9.234;2022-11-20T03:14:41;97006.44;;;6.94;100.00
21980;BME280;11154;48.558;9.234;2022-11-20T03:16:42;97012.41;;;6.96;100.00
21980;BME280;11154;48.558;9.234;2022-11-20T03:18:44;97014.44;;;6.85;100.00
21980;BME280;11154;48.558;9.234;2022-11-20T03:20:46;97017.16;;;6.75;100.00
21980;BME280;11154;48.558;9.234;2022-11-20T03:22:48;97016.94;;;6.69;100.00
21980;BME280;11154;48.558;9.234;2022-11-20T03:24:50;97025.69;;;6.69;100.00
21980;BME280;11154;48.558;9.234;2022-11-20T03:26:52;97018.13;;;6.74;100.00
21980;BME280;11154;48.558;9.234;2022-11-20T03:28:55;97022.16;;;6.78;100.00
21980;BME280;11154;48.558;9.234;2022-11-20T03:31:05;97019.44;;;6.88;100.00
21980;BME280;11154;48.558;9.234;2022-11-20T03:33:06;97018.31;;;6.90;100.00
21980;BME280;11154;48.558;9.234;2022-11-20T03:35:08;97010.97;;;7.02;100.00
21980;BME280;11154;48.558;9.234;2022-11-20T03:37:10;97018.13;;;7.09;100.00
21980;BME280;11154;48.558;9.234;2022-11-20T03:39:12;97014.34;;;7.12;100.00
21980;BME280;11154;48.558;9.234;2022-11-20T03:41:15;97011.72;;;7.12;100.00
21980;BME280;11154;48.558;9.234;2022-11-20T03:43:17;97030.22;;;7.12;100.00
21980;BME280;11154;48.558;9.234;2022-11-20T03:45:19;97023.19;;;7.20;100.00
21980;BME280;11154;48.558;9.234;2022-11-20T03:47:22;97022.19;;;7.21;100.00
21980;BME280;11154;48.558;9.234;2022-11-20T03:49:23;97025.81;;;7.20;100.00
21980;BME280;11154;48.558;9.234;2022-11-20T03:51:27;97020.16;;;7.15;100.00
21980;BME280;11154;48.558;9.234;2022-11-20T03:53:28;97031.09;;;7.20;100.00
21980;BME280;11154;48.558;9.234;2022-11-20T03:55:30;97024.06;;;7.28;100.00
21980;BME280;11154;48.558;9.234;2022-11-20T03:57:32;97030.66;;;7.24;100.00
21980;BME280;11154;48.558;9.234;2022-11-20T03:59:33;97021.22;;;7.22;100.00
21980;BME280;11154;48.558;9.234;2022-11-20T04:01:36;97069.25;;;8.03;100.00
21980;BME280;11154;48.558;9.234;2022-11-20T04:03:41;97060.22;;;8.47;96.61
21980;BME280;11154;48.558;9.234;2022-11-20T04:05:43;97060.81;;;8.74;93.77
21980;BME280;11154;48.558;9.234;2022-11-20T04:07:44;97062.53;;;8.99;90.44
21980;BME280;11154;48.558;9.234;2022-11-20T04:09:46;97062.41;;;9.24;88.65
21980;BME280;11154;48.558;9.234;2022-11-20T04:11:48;97049.31;;;9.38;85.79
21980;BME280;11154;48.558;9.234;2022-11-20T04:13:51;97046.00;;;9.52;86.52
21980;BME280;11154;48.558;9.234;2022-11-20T04:15:57;97057.59;;;9.67;86.24
21980;BME280;11154;48.558;9.234;2022-11-20T04:17:59;97052.28;;;9.83;88.77
21980;BME280;11154;48.558;9.234;2022-11-20T04:20:03;97054.94;;;9.91;85.97
21980;BME280;11154;48.558;9.234;2022-11-20T04:22:05;97054.28;;;9.97;84.06
21980;BME280;11154;48.558;9.234;2022-11-20T04:24:08;97046.94;;;9.99;82.72
21980;BME280;11154;48.558;9.234;2022-11-20T04:26:11;97042.63;;;10.06;82.21
21980;BME280;11154;48.558;9.234;2022-11-20T04:28:13;97051.25;;;10.08;80.95
21980;BME280;11154;48.558;9.234;2022-11-20T04:30:15;97043.59;;;10.13;80.92
21980;BME280;11154;48.558;9.234;2022-11-20T04:32:16;97044.44;;;10.13;80.37
21980;BME280;11154;48.558;9.234;2022-11-20T04:34:18;97038.28;;;10.13;79.30
21980;BME280;11154;48.558;9.234;2022-11-20T04:36:23;97035.63;;;10.13;78.76
21980;BME280;11154;48.558;9.234;2022-11-20T04:38:24;97042.94;;;10.11;78.14
21980;BME280;11154;48.558;9.234;2022-11-20T04:40:27;97042.28;;;10.17;80.08
21980;BME280;11154;48.558;9.234;2022-11-20T04:42:29;97038.28;;;10.21;79.60
21980;BME280;11154;48.558;9.234;2022-11-20T04:44:30;97048.91;;;10.21;77.71
21980;BME280;11154;48.558;9.234;2022-11-20T04:46:34;97045.38;;;10.28;78.21
21980;BME280;11154;48.558;9.234;2022-11-20T04:48:36;97034.25;;;10.33;78.66
21980;BME280;11154;48.558;9.234;2022-11-20T04:50:39;97036.72;;;10.34;78.44
21980;BME280;11154;48.558;9.234;2022-11-20T04:52:42;97039.88;;;10.38;78.85
21980;BME280;11154;48.558;9.234;2022-11-20T04:54:44;97033.56;;;10.39;78.32
21980;BME280;11154;48.558;9.234;2022-11-20T04:56:47;97040.34;;;10.41;78.12
21980;BME280;11154;48.558;9.234;2022-11-20T04:58:48;97038.53;;;10.42;77.87
21980;BME280;11154;48.558;9.234;2022-11-20T05:00:50;97036.88;;;10.41;77.56
21980;BME280;11154;48.558;9.234;2022-11-20T05:02:52;97034.84;;;10.43;78.97
21980;BME280;11154;48.558;9.234;2022-11-20T05:04:54;97036.38;;;10.45;77.80
21980;BME280;11154;48.558;9.234;2022-11-20T05:06:55;97039.50;;;10.49;77.62
21980;BME280;11154;48.558;9.234;2022-11-20T05:08:58;97036.19;;;10.47;77.68
21980;BME280;11154;48.558;9.234;2022-11-20T05:11:02;97038.84;;;10.47;77.81
21980;BME280;11154;48.558;9.234;2022-11-20T05:13:03;97039.34;;;10.50;77.07
21980;BME280;11154;48.558;9.234;2022-11-20T05:15:06;97035.13;;;10.56;76.97
21980;BME280;11154;48.558;9.234;2022-11-20T05:17:10;97035.47;;;10.61;77.16
21980;BME280;11154;48.558;9.234;2022-11-20T05:19:11;97030.97;;;10.61;76.76
21980;BME280;11154;48.558;9.234;2022-11-20T05:21:13;97031.16;;;10.60;76.65
21980;BME280;11154;48.558;9.234;2022-11-20T05:23:15;97032.16;;;10.59;76.51
21980;BME280;11154;48.558;9.234;2022-11-20T05:25:18;97037.09;;;10.62;77.09
21980;BME280;11154;48.558;9.234;2022-11-20T05:27:19;97040.25;;;10.65;76.26
21980;BME280;11154;48.558;9.234;2022-11-20T05:29:21;97029.13;;;10.62;75.73
21980;BME280;11154;48.558;9.234;2022-11-20T05:31:24;97039.59;;;10.63;75.18
21980;BME280;11154;48.558;9.234;2022-11-20T05:33:25;97028.78;;;10.65;76.04
21980;BME280;11154;48.558;9.234;2022-11-20T05:35:27;97035.28;;;10.62;75.83
21980;BME280;11154;48.558;9.234;2022-11-20T05:37:28;97037.09;;;10.62;75.86
21980;BME280;11154;48.558;9.234;2022-11-20T05:39:30;97034.09;;;10.65;76.70
21980;BME280;11154;48.558;9.234;2022-11-20T05:41:35;97034.09;;;10.65;75.88
21980;BME280;11154;48.558;9.234;2022-11-20T05:43:38;97028.59;;;10.66;75.64
21980;BME280;11154;48.558;9.234;2022-11-20T05:45:40;97027.59;;;10.67;75.57
21980;BME280;11154;48.558;9.234;2022-11-20T05:47:41;97031.25;;;10.66;75.56
21980;BME280;11154;48.558;9.234;2022-11-20T05:49:43;97023.94;;;10.68;75.07
21980;BME280;11154;48.558;9.234;2022-11-20T05:51:45;97023.78;;;10.70;75.62
21980;BME280;11154;48.558;9.234;2022-11-20T05:53:46;97018.97;;;10.65;75.50
21980;BME280;11154;48.558;9.234;2022-11-20T05:55:56;97025.47;;;10.63;75.57
21980;BME280;11154;48.558;9.234;2022-11-20T05:57:59;97022.16;;;10.61;75.35
21980;BME280;11154;48.558;9.234;2022-11-20T06:00:01;97023.16;;;10.60;74.87
21980;BME280;11154;48.558;9.234;2022-11-20T06:02:02;97029.47;;;10.59;75.49
21980;BME280;11154;48.558;9.234;2022-11-20T06:04:04;97028.19;;;10.55;74.72
21980;BME280;11154;48.558;9.234;2022-11-20T06:06:06;97023.69;;;10.55;74.57
21980;BME280;11154;48.558;9.234;2022-11-20T06:08:08;97020.84;;;10.57;74.35
21980;BME280;11154;48.558;9.234;2022-11-20T06:10:09;97029.81;;;10.56;74.30
21980;BME280;11154;48.558;9.234;2022-11-20T06:12:11;97014.91;;;10.55;74.82
21980;BME280;11154;48.558;9.234;2022-11-20T06:14:14;97017.22;;;10.50;73.37
21980;BME280;11154;48.558;9.234;2022-11-20T06:16:18;97017.88;;;10.52;73.66
21980;BME280;11154;48.558;9.234;2022-11-20T06:18:20;97024.50;;;10.56;74.01
21980;BME280;11154;48.558;9.234;2022-11-20T06:20:22;97026.16;;;10.57;74.17
21980;BME280;11154;48.558;9.234;2022-11-20T06:22:24;97020.84;;;10.57;73.85
21980;BME280;11154;48.558;9.234;2022-11-20T06:24:26;97019.53;;;10.53;73.53
21980;BME280;11154;48.558;9.234;2022-11-20T06:26:28;97016.03;;;10.52;74.08
21980;BME280;11154;48.558;9.234;2022-11-20T06:28:29;97015.59;;;10.49;74.03
21980;BME280;11154;48.558;9.234;2022-11-20T06:30:32;97016.59;;;10.48;73.47
21980;BME280;11154;48.558;9.234;2022-11-20T06:32:34;97025.19;;;10.50;73.76
21980;BME280;11154;48.558;9.234;2022-11-20T06:34:36;97015.91;;;10.46;74.10
21980;BME280;11154;48.558;9.234;2022-11-20T06:36:37;97015.91;;;10.46;73.62
21980;BME280;11154;48.558;9.234;2022-11-20T06:38:39;97021.06;;;10.47;73.84
21980;BME280;11154;48.558;9.234;2022-11-20T06:40:41;97030.03;;;10.46;73.34
21980;BME280;11154;48.558;9.234;2022-11-20T06:42:43;97025.34;;;10.56;74.40
21980;BME280;11154;48.558;9.234;2022-11-20T06:44:45;97041.44;;;10.93;73.50
21980;BME280;11154;48.558;9.234;2022-11-20T06:46:48;97033.59;;;11.22;71.79
21980;BME280;11154;48.558;9.234;2022-11-20T06:48:50;97035.78;;;11.41;70.81
21980;BME280;11154;48.558;9.234;2022-11-20T06:50:52;97029.56;;;11.48;69.57
21980;BME280;11154;48.558;9.234;2022-11-20T06:52:53;97030.81;;;11.38;68.78
21980;BME280;11154;48.558;9.234;2022-11-20T06:54:55;97033.00;;;11.12;69.52
21980;BME280;11154;48.558;9.234;2022-11-20T06:56:56;97035.44;;;10.91;70.12
21980;BME280;11154;48.558;9.234;2022-11-20T06:58:58;97033.56;;;10.77;71.28
21980;BME280;11154;48.558;9.234;2022-11-20T07:01:00;97028.91;;;10.71;72.31
21980;BME280;11154;48.558;9.234;2022-11-20T07:03:04;97030.44;;;10.66;72.41
21980;BME280;11154;48.558;9.234;2022-11-20T07:05:06;97028.50;;;10.60;72.69
21980;BME280;11154;48.558;9.234;2022-11-20T07:07:08;97038.47;;;10.50;72.41
21980;BME280;11154;48.558;9.234;2022-11-20T07:09:10;97036.19;;;10.47;72.60
21980;BME280;11154;48.558;9.234;2022-11-20T07:11:12;97043.69;;;10.43;73.46
21980;BME280;11154;48.558;9.234;2022-11-20T07:13:13;97032.19;;;10.43;73.49
21980;BME280;11154;48.558;9.234;2022-11-20T07:15:15;97037.03;;;10.39;73.33
21980;BME280;11154;48.558;9.234;2022-11-20T07:17:17;97034.56;;;10.38;74.03
21980;BME280;11154;48.558;9.234;2022-11-20T07:19:21;97051.81;;;10.42;73.84
21980;BME280;11154;48.558;9.234;2022-11-20T07:21:23;97052.16;;;10.39;73.30
21980;BME280;11154;48.558;9.234;2022-11-20T07:23:24;97057.28;;;10.40;74.69
21980;BME280;11154;48.558;9.234;2022-11-20T07:25:27;97052.47;;;10.44;74.10
21980;BME280;11154;48.558;9.234;2022-11-20T07:27:30;97064.09;;;10.43;74.46
21980;BME280;11154;48.558;9.234;2022-11-20T07:29:32;97055.78;;;10.46;75.05
21980;BME280;11154;48.558;9.234;2022-11-20T07:31:33;97053.78;;;10.48;74.16
21980;BME280;11154;48.558;9.234;2022-11-20T07:33:35;97047.31;;;10.50;73.78
21980;BME280;11154;48.558;9.234;2022-11-20T07:35:38;97050.78;;;10.51;74.36
21980;BME280;11154;48.558;9.234;2022-11-20T07:37:40;97056.09;;;10.51;74.06
21980;BME280;11154;48.558;9.234;2022-11-20T07:39:42;97058.56;;;10.52;74.05
21980;BME280;11154;48.558;9.234;2022-11-20T07:41:43;97067.72;;;10.50;74.48
21980;BME280;11154;48.558;9.234;2022-11-20T07:43:45;97052.94;;;10.47;74.35
21980;BME280;11154;48.558;9.234;2022-11-20T07:45:47;97063.75;;;10.46;73.95
21980;BME280;11154;48.558;9.234;2022-11-20T07:47:48;97061.09;;;10.46;74.17
21980;BME280;11154;48.558;9.234;2022-11-20T07:49:50;97061.59;;;10.49;74.79
21980;BME280;11154;48.558;9.234;2022-11-20T07:51:53;97059.25;;;10.54;74.65
21980;BME280;11154;48.558;9.234;2022-11-20T07:53:55;97060.22;;;10.53;74.57
21980;BME280;11154;48.558;9.234;2022-11-20T07:55:59;97062.06;;;10.53;74.16
21980;BME280;11154;48.558;9.234;2022-11-20T07:58:01;97058.41;;;10.54;74.89
21980;BME280;11154;48.558;9.234;2022-11-20T08:00:04;97062.38;;;10.58;75.65
21980;BME280;11154;48.558;9.234;2022-11-20T08:02:09;97061.03;;;10.62;75.40
21980;BME280;11154;48.558;9.234;2022-11-20T08:04:11;97059.88;;;10.64;75.62
21980;BME280;11154;48.558;9.234;2022-11-20T08:06:12;97062.34;;;10.66;75.48
21980;BME280;11154;48.558;9.234;2022-11-20T08:08:16;97049.25;;;10.64;75.73
21980;BME280;11154;48.558;9.234;2022-11-20T08:10:18;97064.34;;;10.64;75.27
21980;BME280;11154;48.558;9.234;2022-11-20T08:12:20;97064.53;;;10.62;75.46
21980;BME280;11154;48.558;9.234;2022-11-20T08:14:39;97071.31;;;10.65;75.63
21980;BME280;11154;48.558;9.234;2022-11-20T08:16:42;97073.28;;;10.71;75.77
21980;BME280;11154;48.558;9.234;2022-11-20T08:18:44;97065.47;;;10.77;75.79
21980;BME280;11154;48.558;9.234;2022-11-20T08:20:46;97074.94;;;10.79;74.82
21980;BME280;11154;48.558;9.234;2022-11-20T08:22:48;97076.88;;;10.85;75.52
21980;BME280;11154;48.558;9.234;2022-11-20T08:24:51;97079.88;;;10.82;75.19
21980;BME280;11154;48.558;9.234;2022-11-20T08:26:52;97081.22;;;10.86;75.44
21980;BME280;11154;48.558;9.234;2022-11-20T08:28:54;97083.50;;;10.89;75.03
21980;BME280;11154;48.558;9.234;2022-11-20T08:30:59;97089.00;;;10.88;74.66
21980;BME280;11154;48.558;9.234;2022-11-20T08:33:03;97080.84;;;10.89;74.88
21980;BME280;11154;48.558;9.234;2022-11-20T08:35:05;97089.50;;;10.91;75.45
21980;BME280;11154;48.558;9.234;2022-11-20T08:37:07;97091.31;;;10.91;75.53
21980;BME280;11154;48.558;9.234;2022-11-20T08:39:11;97091.78;;;10.94;75.40
21980;BME280;11154;48.558;9.234;2022-11-20T08:41:15;97096.75;;;11.05;76.05
21980;BME280;11154;48.558;9.234;2022-11-20T08:43:26;97094.59;;;11.31;74.52
21980;BME280;11154;48.558;9.234;2022-11-20T08:45:27;97090.13;;;11.54;73.37
21980;BME280;11154;48.558;9.234;2022-11-20T08:47:29;97090.34;;;11.67;73.00
21980;BME280;11154;48.558;9.234;2022-11-20T08:49:31;97098.91;;;11.77;73.04
21980;BME280;11154;48.558;9.234;2022-11-20T08:51:33;97105.19;;;11.84;72.43
21980;BME280;11154;48.558;9.234;2022-11-20T08:53:34;97095.97;;;11.72;71.79
21980;BME280;11154;48.558;9.234;2022-11-20T08:55:36;97091.97;;;11.23;73.35
21980;BME280;11154;48.558;9.234;2022-11-20T08:57:39;97099.03;;;11.08;74.99
21980;BME280;11154;48.558;9.234;2022-11-20T08:59:40;97103.34;;;11.09;75.32
21980;BME280;11154;48.558;9.234;2022-11-20T09:01:42;97094.00;;;11.13;75.54
21980;BME280;11154;48.558;9.234;2022-11-20T09:03:44;97100.66;;;11.17;75.67
21980;BME280;11154;48.558;9.234;2022-11-20T09:05:45;97099.66;;;11.18;76.59
21980;BME280;11154;48.558;9.234;2022-11-20T09:07:47;97099.81;;;11.17;76.97
21980;BME280;11154;48.558;9.234;2022-11-20T09:09:49;97102.31;;;11.18;76.71
21980;BME280;11154;48.558;9.234;2022-11-20T09:11:50;97103.88;;;11.35;76.45
21980;BME280;11154;48.558;9.234;2022-11-20T09:13:53;97105.94;;;11.48;75.25
21980;BME280;11154;48.558;9.234;2022-11-20T09:15:56;97100.09;;;11.52;75.44
21980;BME280;11154;48.558;9.234;2022-11-20T09:17:59;97097.44;;;11.52;75.23
21980;BME280;11154;48.558;9.234;2022-11-20T09:20:01;97105.16;;;11.39;76.04
21980;BME280;11154;48.558;9.234;2022-11-20T09:22:02;97100.53;;;11.33;76.17
21980;BME280;11154;48.558;9.234;2022-11-20T09:24:05;97103.72;;;11.29;77.26
21980;BME280;11154;48.558;9.234;2022-11-20T09:26:09;97104.28;;;11.24;77.79
21980;BME280;11154;48.558;9.234;2022-11-20T09:28:11;97096.28;;;11.24;78.21
21980;BME280;11154;48.558;9.234;2022-11-20T09:30:15;97101.69;;;11.08;77.41
21980;BME280;11154;48.558;9.234;2022-11-20T09:32:16;97104.81;;;10.81;79.33
21980;BME280;11154;48.558;9.234;2022-11-20T09:34:18;97109.53;;;10.64;81.15
21980;BME280;11154;48.558;9.234;2022-11-20T09:36:20;97098.63;;;10.51;81.96
21980;BME280;11154;48.558;9.234;2022-11-20T09:38:21;97107.28;;;10.45;82.40
21980;BME280;11154;48.558;9.234;2022-11-20T09:40:26;97098.00;;;10.41;83.05
21980;BME280;11154;48.558;9.234;2022-11-20T09:42:37;97101.84;;;10.38;84.14
21980;BME280;11154;48.558;9.234;2022-11-20T09:44:51;97108.31;;;10.36;83.68
21980;BME280;11154;48.558;9.234;2022-11-20T09:47:01;97118.09;;;10.35;84.72
21980;BME280;11154;48.558;9.234;2022-11-20T09:49:17;97117.13;;;10.36;84.90
21980;BME280;11154;48.558;9.234;2022-11-20T09:51:28;97132.69;;;10.47;85.23
21980;BME280;11154;48.558;9.234;2022-11-20T09:53:36;97125.22;;;10.43;85.50
21980;BME280;11154;48.558;9.234;2022-11-20T09:55:44;97130.03;;;10.39;84.69
21980;BME280;11154;48.558;9.234;2022-11-20T09:57:48;97132.69;;;10.39;85.12
21980;BME280;11154;48.558;9.234;2022-11-20T09:59:55;97138.88;;;10.40;85.70
21980;BME280;11154;48.558;9.234;2022-11-20T10:02:00;97139.84;;;10.39;86.50
21980;BME280;11154;48.558;9.234;2022-11-20T10:04:04;97140.22;;;10.36;87.49
21980;BME280;11154;48.558;9.234;2022-11-20T10:06:11;97131.38;;;10.35;87.98
21980;BME280;11154;48.558;9.234;2022-11-20T10:08:19;97127.25;;;10.41;88.38
21980;BME280;11154;48.558;9.234;2022-11-20T10:10:30;97135.53;;;10.46;88.51
21980;BME280;11154;48.558;9.234;2022-11-20T10:12:40;97125.38;;;10.49;88.61
21980;BME280;11154;48.558;9.234;2022-11-20T10:15:03;97131.88;;;10.47;87.52
21980;BME280;11154;48.558;9.234;2022-11-20T10:17:22;97132.19;;;10.44;87.84
21980;BME280;11154;48.558;9.234;2022-11-20T10:19:46;97127.53;;;10.54;87.39
21980;BME280;11154;48.558;9.234;2022-11-20T10:21:58;97126.84;;;10.60;88.27
21980;BME280;11154;48.558;9.234;2022-11-20T10:24:30;97124.69;;;10.55;87.21
21980;BME280;11154;48.558;9.234;2022-11-20T10:26:43;97131.50;;;10.50;86.49
21980;BME280;11154;48.558;9.234;2022-11-20T10:29:00;97136.84;;;10.50;87.65
21980;BME280;11154;48.558;9.234;2022-11-20T10:31:09;97127.84;;;10.51;88.39
21980;BME280;11154;48.558;9.234;2022-11-20T10:33:17;97123.88;;;10.55;90.63
21980;BME280;11154;48.558;9.234;2022-11-20T10:35:22;97135.13;;;10.65;92.96
21980;BME280;11154;48.558;9.234;2022-11-20T10:37:26;97135.53;;;10.92;94.64
21980;BME280;11154;48.558;9.234;2022-11-20T10:39:33;97134.09;;;11.42;90.04
21980;BME280;11154;48.558;9.234;2022-11-20T10:41:40;97131.09;;;11.90;83.71
21980;BME280;11154;48.558;9.234;2022-11-20T10:43:43;97130.69;;;12.37;81.45
21980;BME280;11154;48.558;9.234;2022-11-20T10:45:50;97134.53;;;12.78;76.03
21980;BME280;11154;48.558;9.234;2022-11-20T10:47:54;97129.97;;;12.87;75.31
21980;BME280;11154;48.558;9.234;2022-11-20T10:50:03;97125.47;;;12.87;72.63
21980;BME280;11154;48.558;9.234;2022-11-20T10:52:19;97112.88;;;12.96;74.15
21980;BME280;11154;48.558;9.234;2022-11-20T10:54:30;97122.06;;;12.93;71.45
21980;BME280;11154;48.558;9.234;2022-11-20T10:56:39;97118.84;;;12.98;72.43